Springfield, MO (65803)

11:08 PM CDT on August 31, 2015 (GMT -0500)
Springfield Downtown Airport | | Change Station
CLOSE
Current Station
Personal Weather Station
Location: Springfield, MO
Elevation: 1368 ft
Nearby Weather Stations

Elev 1368 ft 37.22 °N, 93.24 °W | Updated 2 minutes ago

Clear
Clear
75.5 °F
Feels Like 76 °F
N
7.0
Wind Variable Wind from SSE
Gusts 9.0 mph

Today
High -- | Low -- °F
--% Chance of Precip.
Yesterday
High -- | Low -- °F
Precip. -- in
6:42 AM 7:43 PM
Waning Gibbous, 92% visible
Pressure 30.02 in
Visibility 10.0 miles
Clouds Clear
Heat Index 76 °F
Dew Point 70 °F
Humidity 82%
Rainfall in
Snow Depth Not available.
UV 0 out of 12
Pollen 10.60 out of 12
Air Quality Not available.
Flu Activity Not available.
METAR KSGF 010352Z 17007KT 10SM CLR 23/19 A3006 RMK AO2 SLP165 T02330194
Pressure 30.02 in
Visibility 10.0 miles
Clouds Clear
Heat Index 76 °F
Dew Point 70 °F
Humidity 82%
Rainfall in
Snow Depth Not available.
UV 0 out of 12
Pollen 10.60 out of 12
Air Quality Not available.
Flu Activity Not available.
METAR KSGF 010352Z 17007KT 10SM CLR 23/19 A3006 RMK AO2 SLP165 T02330194

10-Day Weather Forecast

×

Almanac

Astronomy

Aug. 31, 2015 Rise Set
Actual Time
Civil Twilight
Nautical Twilight
Astronomical Twilight
Moon
Length of Visible Light
Length of Day
Tomorrow will be .
, % of the Moon is Illuminated

Today's Extremes

State Highs State Lows

Community

WunderPhotos

Upload Photos

1,851,477 photos uploaded!

WunderBlogs® & News

Nearby

Air Quality

  Air Quality AQ Index Pollutant
Not available.

Snow Depth

Station Depth Elevation

Earthquake Activity

City Distance Mag. Time & Date
Minimum magnitude displayed is 2.5.

Coastal Water Temperatures

Place Temperature

Stations

Nearby Weather Stations

Station Location Temp. Windchill Dew Point Humidity Wind Precip. Elev Updated Type